Time;durP1;ratioP1;P1;durP2;ratioP2;P2;SDS_P1;SDS_P2;PMS_P1;PMS_P2;Temp;Humidity;BMP_temperature;BMP_pressure;BME280_temperature;BME280_humidity;BME280_pressure;Samples;Min_cycle;Max_cycle;Signal;HPM_P1;HPM_P2
2023/12/02 00:01:43;;;;;;;160.93;72.72;;;0.50;99.90;;;;;;4808259;29;20050;-67
2023/12/02 00:04:10;;;;;;;261.10;95.68;;;0.50;99.90;;;;;;4826567;29;20435;-67
2023/12/02 00:06:37;;;;;;;39.72;24.38;;;0.50;99.90;;;;;;4807582;29;20124;-67
2023/12/02 00:09:09;;;;;;;42.67;25.88;;;0.50;99.90;;;;;;4807094;29;20047;-67
2023/12/02 00:11:41;;;;;;;30.95;19.25;;;0.50;99.90;;;;;;4798780;29;20065;-67
2023/12/02 00:14:13;;;;;;;39.05;23.50;;;0.40;99.90;;;;;;4811691;29;20108;-65
2023/12/02 00:16:45;;;;;;;49.55;25.27;;;0.40;99.90;;;;;;4828106;29;20046;-67
2023/12/02 00:19:17;;;;;;;187.75;66.43;;;0.40;99.90;;;;;;4815917;29;20038;-65
2023/12/02 00:21:50;;;;;;;138.40;48.55;;;0.40;99.90;;;;;;4813253;29;20038;-67
2023/12/02 00:24:22;;;;;;;94.65;37.30;;;0.40;99.90;;;;;;4815206;29;20434;-67
2023/12/02 00:26:49;;;;;;;120.35;41.15;;;0.40;99.90;;;;;;4817571;29;20153;-67
2023/12/02 00:29:21;;;;;;;53.65;21.55;;;0.30;99.90;;;;;;4829281;29;20129;-67
2023/12/02 00:31:53;;;;;;;32.22;17.08;;;0.30;99.90;;;;;;4812529;29;20054;-65
2023/12/02 00:34:25;;;;;;;144.82;46.58;;;0.30;99.90;;;;;;4816188;29;20121;-67
2023/12/02 00:36:52;;;;;;;52.90;20.77;;;0.30;99.90;;;;;;4811670;29;20045;-66
2023/12/02 00:39:24;;;;;;;38.65;18.23;;;0.30;99.90;;;;;;4819716;29;20404;-67
2023/12/02 00:41:56;;;;;;;51.95;22.63;;;0.30;99.90;;;;;;4817793;29;20047;-67
2023/12/02 00:44:22;;;;;;;37.47;18.80;;;0.30;99.90;;;;;;4812160;29;20046;-66
2023/12/02 00:46:54;;;;;;;53.30;21.98;;;0.30;99.90;;;;;;4815636;29;20054;-67
2023/12/02 00:49:26;;;;;;;56.17;22.83;;;0.30;99.90;;;;;;4817728;29;20418;-67
2023/12/02 00:51:58;;;;;;;57.97;24.88;;;0.30;99.90;;;;;;4815413;29;20046;-67
2023/12/02 00:54:25;;;;;;;30.30;16.45;;;0.30;99.90;;;;;;4815890;29;20042;-67
2023/12/02 00:56:56;;;;;;;36.65;18.50;;;0.30;99.90;;;;;;4816443;29;20117;-67
2023/12/02 00:59:28;;;;;;;27.70;14.50;;;0.30;99.90;;;;;;4830980;29;20046;-67
2023/12/02 01:02:00;;;;;;;45.03;21.13;;;0.30;99.90;;;;;;4840116;29;20142;-68
2023/12/02 01:04:36;;;;;;;36.83;18.63;;;0.30;99.90;;;;;;4812316;29;20058;-67
2023/12/02 01:07:08;;;;;;;41.92;18.90;;;0.30;99.90;;;;;;4828013;29;20063;-67
2023/12/02 01:09:40;;;;;;;57.60;25.50;;;0.30;99.90;;;;;;4828929;29;20064;-67
2023/12/02 01:12:17;;;;;;;35.17;17.95;;;0.30;99.90;;;;;;4825150;29;20099;-67
2023/12/02 01:14:44;;;;;;;23.65;13.13;;;0.30;99.90;;;;;;4798427;29;20675;-67
2023/12/02 01:17:16;;;;;;;26.65;13.75;;;0.30;99.90;;;;;;4816491;29;20042;-66
2023/12/02 01:19:48;;;;;;;41.88;18.10;;;0.30;99.90;;;;;;4813846;29;20041;-65
2023/12/02 01:22:20;;;;;;;25.33;13.00;;;0.30;99.90;;;;;;4831184;29;20049;-67
2023/12/02 01:24:52;;;;;;;39.67;19.30;;;0.30;99.90;;;;;;4828223;29;20116;-67
2023/12/02 01:27:24;;;;;;;36.22;18.33;;;0.20;99.90;;;;;;4807694;29;20585;-67
2023/12/02 01:29:55;;;;;;;29.63;14.10;;;0.20;99.90;;;;;;4814326;29;20051;-67
2023/12/02 01:32:27;;;;;;;30.13;13.68;;;0.20;99.90;;;;;;4809697;29;20538;-67
2023/12/02 01:34:54;;;;;;;18.13;10.18;;;0.20;99.90;;;;;;4806967;29;20074;-68
2023/12/02 01:37:27;;;;;;;18.83;11.73;;;0.20;99.90;;;;;;4830506;29;20043;-67
2023/12/02 01:39:59;;;;;;;15.93;10.30;;;0.20;99.90;;;;;;4825640;29;20057;-67
2023/12/02 01:42:26;;;;;;;17.88;10.90;;;0.20;99.90;;;;;;4814472;29;20069;-67
2023/12/02 01:44:58;;;;;;;21.15;12.63;;;0.20;99.90;;;;;;4829660;29;20527;-67
2023/12/02 01:47:25;;;;;;;16.98;10.80;;;0.20;99.90;;;;;;4815526;29;20053;-67
2023/12/02 01:49:53;;;;;;;15.05;10.20;;;0.20;99.90;;;;;;4812058;29;20038;-67
2023/12/02 01:52:25;;;;;;;13.02;8.25;;;0.20;99.90;;;;;;4819484;29;20515;-67
2023/12/02 01:54:52;;;;;;;15.32;10.13;;;0.20;99.90;;;;;;4813532;29;20050;-68
2023/12/02 01:57:24;;;;;;;16.02;10.63;;;0.20;99.90;;;;;;4808010;29;20038;-67
2023/12/02 01:59:54;;;;;;;15.88;9.68;;;0.10;99.90;;;;;;4808694;29;20039;-67
2023/12/02 02:02:26;;;;;;;15.23;9.63;;;0.10;99.90;;;;;;4811631;29;20038;-67
2023/12/02 02:04:57;;;;;;;14.55;9.27;;;0.10;99.90;;;;;;4810025;29;20074;-67
2023/12/02 02:07:30;;;;;;;16.70;10.10;;;0.10;99.90;;;;;;4814284;29;20076;-67
2023/12/02 02:10:02;;;;;;;14.15;10.05;;;0.10;99.90;;;;;;4814491;29;20058;-67
2023/12/02 02:12:34;;;;;;;14.35;9.73;;;0.10;99.90;;;;;;4812302;29;20046;-67
2023/12/02 02:15:01;;;;;;;15.80;10.68;;;0.10;99.90;;;;;;4824983;29;20047;-67
2023/12/02 02:17:33;;;;;;;15.88;9.85;;;0.10;99.90;;;;;;4815199;29;20054;-67
2023/12/02 02:20:05;;;;;;;14.93;9.65;;;0.10;99.90;;;;;;4810812;29;20126;-67
2023/12/02 02:22:32;;;;;;;15.25;9.98;;;0.10;99.90;;;;;;4806996;29;20034;-67
2023/12/02 02:25:05;;;;;;;14.93;9.98;;;0.10;99.90;;;;;;4810875;29;20538;-67
2023/12/02 02:27:37;;;;;;;14.43;9.65;;;0.10;99.90;;;;;;4819755;29;20095;-67
2023/12/02 02:30:09;;;;;;;13.98;8.98;;;0.10;99.90;;;;;;4828657;29;20050;-67
2023/12/02 02:32:36;;;;;;;15.70;10.13;;;0.10;99.90;;;;;;4802997;29;20061;-67
2023/12/02 02:35:03;;;;;;;15.07;10.18;;;0.10;99.90;;;;;;4826234;29;20046;-67
2023/12/02 02:37:35;;;;;;;15.13;9.48;;;0.10;99.90;;;;;;4813515;29;20043;-67
2023/12/02 02:40:02;;;;;;;15.25;9.85;;;0.10;99.90;;;;;;4815185;29;20129;-67
2023/12/02 02:42:35;;;;;;;15.43;9.68;;;0.10;99.90;;;;;;4813751;29;20049;-67
2023/12/02 02:45:07;;;;;;;15.50;10.20;;;0.10;99.90;;;;;;4810400;29;20051;-68
2023/12/02 02:47:39;;;;;;;13.98;8.93;;;0.10;99.90;;;;;;4814067;29;20050;-67
2023/12/02 02:50:11;;;;;;;16.92;10.18;;;0.10;99.90;;;;;;4818652;29;20525;-67
2023/12/02 02:52:43;;;;;;;14.75;9.75;;;0.00;99.90;;;;;;4819448;29;20062;-67
2023/12/02 02:55:15;;;;;;;14.82;9.63;;;0.10;99.90;;;;;;4815801;29;20043;-68
2023/12/02 02:57:46;;;;;;;15.23;9.95;;;0.10;99.90;;;;;;4810746;29;20047;-67
2023/12/02 03:00:18;;;;;;;14.95;9.82;;;0.10;99.90;;;;;;4812720;29;20050;-67
2023/12/02 03:02:45;;;;;;;16.60;9.38;;;0.10;99.90;;;;;;4813710;29;20039;-67
2023/12/02 03:05:17;;;;;;;15.10;9.98;;;0.10;99.90;;;;;;4828274;29;20644;-67
2023/12/02 03:07:49;;;;;;;16.20;9.85;;;0.10;99.90;;;;;;4811602;29;20595;-67
2023/12/02 03:10:22;;;;;;;16.40;10.10;;;0.00;99.90;;;;;;4810744;29;20054;-66
2023/12/02 03:12:54;;;;;;;11.60;7.77;;;0.00;99.90;;;;;;4812855;29;20105;-68
2023/12/02 03:15:25;;;;;;;16.15;10.77;;;0.00;99.90;;;;;;4820245;29;20524;-67
2023/12/02 03:17:57;;;;;;;15.98;10.60;;;0.00;99.90;;;;;;4821613;29;20123;-67
2023/12/02 03:20:29;;;;;;;15.57;10.77;;;0.00;99.90;;;;;;4816387;29;20065;-66
2023/12/02 03:23:01;;;;;;;15.15;10.73;;;0.00;99.90;;;;;;4823015;29;20065;-67
2023/12/02 03:25:32;;;;;;;16.02;10.93;;;-0.10;99.90;;;;;;4838581;29;20412;-67
2023/12/02 03:28:04;;;;;;;18.90;12.23;;;-0.10;99.90;;;;;;4825540;29;20062;-67
2023/12/02 03:30:36;;;;;;;16.48;10.07;;;-0.10;99.90;;;;;;4828503;29;20566;-65
2023/12/02 03:33:08;;;;;;;17.55;11.50;;;-0.10;99.90;;;;;;4812357;29;20046;-67
2023/12/02 03:35:40;;;;;;;15.70;10.10;;;-0.10;99.90;;;;;;4815308;29;20053;-67
2023/12/02 03:38:12;;;;;;;16.10;10.90;;;-0.10;99.90;;;;;;4824613;29;20051;-65
2023/12/02 03:40:45;;;;;;;19.00;10.48;;;-0.10;99.90;;;;;;4805680;29;20077;-68
2023/12/02 03:43:17;;;;;;;16.13;11.18;;;-0.10;99.90;;;;;;4815000;29;20058;-67
2023/12/02 03:45:48;;;;;;;15.98;10.80;;;-0.10;99.90;;;;;;4812128;29;20137;-66
2023/12/02 03:48:20;;;;;;;17.20;11.23;;;-0.10;99.90;;;;;;4816703;29;20578;-67
2023/12/02 03:50:52;;;;;;;14.88;9.85;;;-0.10;99.90;;;;;;4816828;29;20405;-67
2023/12/02 03:53:25;;;;;;;18.73;10.50;;;-0.10;99.90;;;;;;4821475;29;20132;-67
2023/12/02 03:55:57;;;;;;;20.77;14.75;;;-0.10;99.90;;;;;;4816250;29;20046;-67
2023/12/02 03:58:30;;;;;;;17.25;11.48;;;-0.20;99.90;;;;;;4816790;29;20050;-67
2023/12/02 04:01:03;;;;;;;20.88;11.05;;;-0.10;99.90;;;;;;4814506;29;20046;-67
2023/12/02 04:03:29;;;;;;;17.23;10.82;;;-0.20;99.90;;;;;;4811997;29;20042;-67
2023/12/02 04:06:01;;;;;;;17.55;10.77;;;-0.20;99.90;;;;;;4818043;29;20066;-65
2023/12/02 04:08:33;;;;;;;17.65;10.55;;;-0.30;99.90;;;;;;4820165;29;20507;-65
2023/12/02 04:11:05;;;;;;;18.13;10.32;;;-0.30;99.90;;;;;;4809178;29;20047;-65
2023/12/02 04:13:33;;;;;;;17.92;11.05;;;-0.20;99.90;;;;;;4824125;29;20073;-66
2023/12/02 04:16:00;;;;;;;17.48;10.90;;;-0.20;99.90;;;;;;4813318;29;20049;-66
2023/12/02 04:18:33;;;;;;;16.52;10.23;;;-0.30;99.90;;;;;;4816912;29;20512;-67
2023/12/02 04:21:06;;;;;;;13.40;8.45;;;-0.30;99.90;;;;;;4830420;29;20108;-65
2023/12/02 04:23:38;;;;;;;22.25;13.45;;;-0.30;99.90;;;;;;4806474;29;20043;-67
2023/12/02 04:26:10;;;;;;;25.33;17.17;;;-0.30;99.90;;;;;;4815400;29;20050;-66
2023/12/02 04:28:42;;;;;;;19.58;13.30;;;-0.30;99.90;;;;;;4825722;29;20058;-67
2023/12/02 04:31:14;;;;;;;14.27;9.63;;;-0.30;99.90;;;;;;4817831;29;20510;-67
2023/12/02 04:33:46;;;;;;;18.83;12.77;;;-0.30;99.90;;;;;;4813878;29;20507;-67
2023/12/02 04:36:14;;;;;;;13.35;8.95;;;-0.30;99.90;;;;;;4808396;29;20047;-67
2023/12/02 04:38:46;;;;;;;14.65;9.63;;;-0.30;99.90;;;;;;4812857;29;20049;-67
2023/12/02 04:41:17;;;;;;;16.10;11.25;;;-0.30;99.90;;;;;;4821434;29;20427;-66
2023/12/02 04:43:49;;;;;;;14.35;9.25;;;-0.40;99.90;;;;;;4830535;29;20054;-67
2023/12/02 04:46:17;;;;;;;14.05;9.52;;;-0.40;99.90;;;;;;4816619;29;20042;-67
2023/12/02 04:48:48;;;;;;;16.77;9.13;;;-0.40;99.90;;;;;;4815541;29;20137;-67
2023/12/02 04:51:20;;;;;;;16.58;10.82;;;-0.50;99.90;;;;;;4813706;29;20051;-66
2023/12/02 04:53:52;;;;;;;18.02;11.05;;;-0.50;99.90;;;;;;4831133;29;20054;-66
2023/12/02 04:56:24;;;;;;;16.38;9.55;;;-0.50;99.90;;;;;;4815740;29;20057;-66
2023/12/02 04:58:56;;;;;;;14.43;9.68;;;-0.60;99.90;;;;;;4814265;29;20039;-67
2023/12/02 05:01:28;;;;;;;15.45;9.32;;;-0.60;99.90;;;;;;4825244;29;20038;-66
2023/12/02 05:04:00;;;;;;;16.23;10.00;;;-0.60;99.90;;;;;;4823121;29;20423;-66
2023/12/02 05:06:31;;;;;;;14.60;10.38;;;-0.60;99.90;;;;;;4811208;29;20050;-66
2023/12/02 05:08:58;;;;;;;21.40;12.23;;;-0.70;99.90;;;;;;4814425;29;20099;-66
2023/12/02 05:11:30;;;;;;;19.15;11.55;;;-0.80;99.90;;;;;;4825195;29;20061;-66
2023/12/02 05:14:02;;;;;;;18.70;11.80;;;-0.80;99.90;;;;;;4816177;29;20050;-67
2023/12/02 05:16:34;;;;;;;20.58;12.02;;;-0.90;99.90;;;;;;4814616;29;20050;-67
2023/12/02 05:19:05;;;;;;;18.15;11.07;;;-0.90;99.90;;;;;;4897668;24;20086;-66
2023/12/02 05:21:37;;;;;;;18.65;11.40;;;-0.90;99.90;;;;;;4891477;29;20517;-66
2023/12/02 05:24:09;;;;;;;20.60;11.10;;;-0.90;99.90;;;;;;4891994;29;20068;-66
2023/12/02 05:26:41;;;;;;;20.65;11.90;;;-0.90;99.90;;;;;;4886314;29;20410;-66
2023/12/02 05:29:09;;;;;;;18.85;10.95;;;-0.90;99.90;;;;;;4883321;29;20065;-66
2023/12/02 05:31:40;;;;;;;24.23;13.57;;;-1.00;99.90;;;;;;4889585;29;20037;-66
2023/12/02 05:34:12;;;;;;;24.58;14.18;;;-1.00;99.90;;;;;;4888768;29;20052;-66
2023/12/02 05:36:46;;;;;;;22.45;14.23;;;-1.00;99.90;;;;;;4891343;29;20069;-66
2023/12/02 05:39:14;;;;;;;22.75;12.43;;;-1.10;99.90;;;;;;4903936;29;20044;-66
2023/12/02 05:41:46;;;;;;;25.90;14.93;;;-1.10;99.90;;;;;;4895759;29;20056;-66
2023/12/02 05:44:19;;;;;;;21.05;12.40;;;-1.10;99.90;;;;;;4892086;29;20293;-66
2023/12/02 05:46:51;;;;;;;34.63;21.27;;;-1.10;99.90;;;;;;4902815;29;20044;-66
2023/12/02 05:49:23;;;;;;;37.10;21.42;;;-1.10;99.90;;;;;;4891375;29;20376;-66
2023/12/02 05:51:55;;;;;;;30.05;17.55;;;-1.10;99.90;;;;;;4884566;29;20429;-66
2023/12/02 05:54:27;;;;;;;43.60;19.98;;;-1.10;99.90;;;;;;4884552;29;20064;-66
2023/12/02 05:56:59;;;;;;;55.65;22.23;;;-1.10;99.90;;;;;;4886366;29;20102;-66
2023/12/02 05:59:31;;;;;;;75.65;29.80;;;-1.10;99.90;;;;;;4884012;29;20379;-66
2023/12/02 06:02:03;;;;;;;69.50;31.90;;;-1.10;99.90;;;;;;4889788;29;20045;-66
2023/12/02 06:04:35;;;;;;;35.25;17.83;;;-1.10;99.90;;;;;;4888470;29;20131;-66
2023/12/02 06:07:07;;;;;;;32.03;19.13;;;-1.10;99.90;;;;;;4890238;29;20044;-66
2023/12/02 06:09:42;;;;;;;46.80;23.83;;;-1.10;99.90;;;;;;4886714;29;20043;-66
2023/12/02 06:12:10;;;;;;;42.10;21.45;;;-1.10;99.90;;;;;;4893347;29;20096;-66
2023/12/02 06:14:41;;;;;;;53.42;25.63;;;-1.10;99.90;;;;;;4886982;29;20052;-66
2023/12/02 06:17:14;;;;;;;51.97;25.20;;;-1.10;99.90;;;;;;4882495;29;20551;-67
2023/12/02 06:19:45;;;;;;;31.27;14.98;;;-1.10;99.90;;;;;;4894682;29;20052;-66
2023/12/02 06:22:17;;;;;;;25.42;13.75;;;-1.10;99.90;;;;;;4888733;29;20432;-66
2023/12/02 06:24:50;;;;;;;30.20;14.57;;;-1.10;99.90;;;;;;4888664;29;20041;-67
2023/12/02 06:27:22;;;;;;;69.00;30.73;;;-1.20;99.90;;;;;;4890804;29;20052;-66
2023/12/02 06:29:54;;;;;;;39.13;20.27;;;-1.20;99.90;;;;;;4887677;29;20044;-66
2023/12/02 06:32:26;;;;;;;28.13;14.50;;;-1.20;99.90;;;;;;4904633;29;20084;-66
2023/12/02 06:34:58;;;;;;;34.30;17.80;;;-1.20;99.90;;;;;;4891166;29;20053;-67
2023/12/02 06:37:29;;;;;;;44.90;20.23;;;-1.20;99.90;;;;;;4887040;29;20050;-66
2023/12/02 06:39:56;;;;;;;46.00;22.98;;;-1.20;99.90;;;;;;4887502;29;20056;-66
2023/12/02 06:42:23;;;;;;;44.70;23.23;;;-1.20;99.90;;;;;;4895368;29;20105;-66
2023/12/02 06:44:55;;;;;;;55.63;24.08;;;-1.20;99.90;;;;;;4889003;29;20081;-66
2023/12/02 06:47:22;;;;;;;72.05;31.77;;;-1.30;99.90;;;;;;4883100;29;20049;-66
2023/12/02 06:49:54;;;;;;;40.55;19.10;;;-1.30;99.90;;;;;;4888833;29;20120;-66
2023/12/02 06:52:26;;;;;;;49.25;22.85;;;-1.30;99.90;;;;;;4891218;29;20045;-66
2023/12/02 06:54:52;;;;;;;89.45;38.70;;;-1.30;99.90;;;;;;4892033;29;20489;-66
2023/12/02 06:57:19;;;;;;;81.55;36.83;;;-1.30;99.90;;;;;;4888200;29;20075;-66
2023/12/02 06:59:54;;;;;;;86.38;32.97;;;-1.30;99.90;;;;;;4889387;29;20668;-67
2023/12/02 07:02:21;;;;;;;70.55;29.50;;;-1.30;99.90;;;;;;4891582;29;20052;-67
2023/12/02 07:04:48;;;;;;;54.60;25.60;;;-1.20;99.90;;;;;;4893628;29;20037;-67
2023/12/02 07:07:19;;;;;;;50.45;22.92;;;-1.20;99.90;;;;;;4889171;29;20076;-66
2023/12/02 07:09:51;;;;;;;40.15;18.27;;;-1.20;99.90;;;;;;4885125;29;20037;-70
2023/12/02 07:12:23;;;;;;;20.02;12.45;;;-1.20;99.90;;;;;;4896524;29;20140;-69
2023/12/02 07:14:55;;;;;;;28.98;15.00;;;-1.20;99.90;;;;;;4889615;29;20044;-66
2023/12/02 07:17:27;;;;;;;26.50;16.15;;;-1.30;99.90;;;;;;4888059;29;20104;-66
2023/12/02 07:20:00;;;;;;;32.55;18.67;;;-1.30;99.90;;;;;;4890205;29;20131;-67
2023/12/02 07:22:32;;;;;;;33.45;16.83;;;-1.30;99.90;;;;;;4893089;29;20517;-67
2023/12/02 07:25:04;;;;;;;37.17;20.67;;;-1.30;99.90;;;;;;4890841;29;20573;-66
2023/12/02 07:27:36;;;;;;;39.05;19.00;;;-1.20;99.90;;;;;;4892541;29;20040;-67
2023/12/02 07:30:05;;;;;;;28.00;16.15;;;-1.20;99.90;;;;;;4905444;29;20045;-69
2023/12/02 07:32:37;;;;;;;35.00;17.90;;;-1.30;99.90;;;;;;4891627;29;20702;-69
2023/12/02 07:35:04;;;;;;;32.35;17.23;;;-1.30;99.90;;;;;;4888727;29;20434;-69
2023/12/02 07:37:36;;;;;;;36.90;20.65;;;-1.20;99.90;;;;;;4890467;29;20080;-69
2023/12/02 07:40:09;;;;;;;34.60;19.10;;;-1.20;99.90;;;;;;4884405;29;20125;-70
2023/12/02 07:42:41;;;;;;;37.77;20.77;;;-1.20;99.90;;;;;;4885290;29;20053;-70
2023/12/02 07:45:13;;;;;;;31.92;18.48;;;-1.30;99.90;;;;;;4909090;29;20457;-67
2023/12/02 07:47:45;;;;;;;30.77;16.95;;;-1.20;99.90;;;;;;4895335;29;20036;-69
2023/12/02 07:50:12;;;;;;;32.83;19.20;;;-1.20;99.90;;;;;;4888712;29;20053;-70
2023/12/02 07:52:44;;;;;;;31.17;17.95;;;-1.20;99.90;;;;;;4889246;29;20136;-69
2023/12/02 07:55:15;;;;;;;29.65;17.10;;;-1.10;99.90;;;;;;4893027;29;20040;-70
2023/12/02 07:57:47;;;;;;;26.25;14.80;;;-1.10;99.90;;;;;;4890797;29;20048;-69
2023/12/02 08:00:19;;;;;;;39.15;23.10;;;-1.00;99.90;;;;;;4891504;29;20045;-67
2023/12/02 08:02:51;;;;;;;33.03;19.80;;;-1.00;99.90;;;;;;4890037;29;20040;-67
2023/12/02 08:05:23;;;;;;;31.63;18.60;;;-1.00;99.90;;;;;;4894523;29;20045;-67
2023/12/02 08:07:55;;;;;;;29.55;16.65;;;-1.00;99.90;;;;;;4906214;29;20112;-67
2023/12/02 08:10:28;;;;;;;28.23;16.65;;;-0.80;99.90;;;;;;4893465;29;20053;-67
2023/12/02 08:13:00;;;;;;;28.10;15.38;;;-0.70;99.90;;;;;;4902261;29;20071;-67
2023/12/02 08:15:32;;;;;;;25.65;14.20;;;-0.70;99.90;;;;;;4894171;29;20045;-66
2023/12/02 08:18:04;;;;;;;28.73;16.60;;;-0.70;99.90;;;;;;4891244;29;20041;-69
2023/12/02 08:20:36;;;;;;;27.17;15.93;;;-0.70;99.90;;;;;;4888976;29;20037;-67
2023/12/02 08:23:08;;;;;;;34.38;18.95;;;-0.70;99.90;;;;;;4889368;29;20048;-66
2023/12/02 08:25:35;;;;;;;38.67;21.33;;;-0.70;99.90;;;;;;4903834;29;20048;-67
2023/12/02 08:28:02;;;;;;;30.48;18.23;;;-0.70;99.90;;;;;;4884916;29;20071;-66
2023/12/02 08:30:29;;;;;;;31.55;16.33;;;-0.70;99.90;;;;;;4887240;29;20096;-66
2023/12/02 08:33:01;;;;;;;27.10;15.30;;;-0.70;99.90;;;;;;4882401;29;20095;-67
2023/12/02 08:35:32;;;;;;;23.85;14.35;;;-0.70;99.90;;;;;;4895081;29;20072;-68
2023/12/02 08:38:04;;;;;;;26.92;16.38;;;-0.60;99.90;;;;;;4884878;29;20534;-69
2023/12/02 08:40:32;;;;;;;29.58;15.95;;;-0.60;99.90;;;;;;4889825;29;20040;-69
2023/12/02 08:42:59;;;;;;;25.10;15.23;;;-0.50;99.90;;;;;;4885666;29;20057;-69
2023/12/02 08:45:31;;;;;;;30.13;15.27;;;-0.50;99.90;;;;;;4892960;29;20133;-69
2023/12/02 08:48:03;;;;;;;26.13;14.68;;;-0.50;99.90;;;;;;4882861;29;20537;-67
2023/12/02 08:50:30;;;;;;;23.38;13.27;;;-0.50;99.90;;;;;;4891218;29;20073;-67
2023/12/02 08:53:03;;;;;;;21.38;12.57;;;-0.60;99.90;;;;;;4883601;29;20049;-69
2023/12/02 08:55:30;;;;;;;20.60;12.57;;;-0.60;99.90;;;;;;4887944;29;20059;-70
2023/12/02 08:58:02;;;;;;;24.27;13.05;;;-0.60;99.90;;;;;;4886574;29;20041;-69
2023/12/02 09:00:31;;;;;;;23.95;13.10;;;-0.70;99.90;;;;;;4884717;29;20049;-69
2023/12/02 09:03:04;;;;;;;16.80;9.27;;;-0.80;99.90;;;;;;4888673;29;20041;-66
2023/12/02 09:05:31;;;;;;;22.38;12.82;;;-0.80;99.90;;;;;;4889102;29;20128;-69
2023/12/02 09:08:03;;;;;;;19.70;11.27;;;-0.90;99.90;;;;;;4888080;29;20049;-68
2023/12/02 09:10:30;;;;;;;22.95;12.75;;;-0.80;99.90;;;;;;4892636;29;20580;-68
2023/12/02 09:13:31;;;;;;;22.65;11.35;;;-0.90;99.90;;;;;;4893976;29;20466;-68
2023/12/02 09:16:03;;;;;;;19.35;11.60;;;-0.90;99.90;;;;;;4886780;29;20120;-66
2023/12/02 09:18:34;;;;;;;24.63;13.55;;;-1.00;99.90;;;;;;4909700;29;20139;-67
2023/12/02 09:21:21;;;;;;;27.05;14.60;;;-0.90;99.90;;;;;;4883624;29;20043;-66
2023/12/02 09:23:53;;;;;;;25.70;14.95;;;-0.90;99.90;;;;;;4881391;29;20044;-67
2023/12/02 09:26:31;;;;;;;30.40;14.93;;;-0.90;99.90;;;;;;4891012;29;20566;-67
2023/12/02 09:29:03;;;;;;;32.85;15.07;;;-0.90;99.90;;;;;;4890087;29;20802;-67
2023/12/02 09:31:35;;;;;;;26.70;13.77;;;-0.90;99.90;;;;;;4891779;29;20621;-67
2023/12/02 09:34:48;;;;;;;21.85;13.45;;;-1.00;99.90;;;;;;4892379;29;20079;-67
2023/12/02 09:38:03;;;;;;;23.52;12.80;;;-0.90;99.90;;;;;;4889293;29;21792;-68
2023/12/02 09:40:52;;;;;;;82.00;35.25;;;-0.90;99.90;;;;;;4882848;29;20059;-67
2023/12/02 09:43:40;;;;;;;34.95;17.50;;;-0.80;99.90;;;;;;4906913;29;20052;-67
2023/12/02 09:46:18;;;;;;;51.60;31.48;;;-0.80;99.90;;;;;;4887827;29;20053;-67
2023/12/02 09:49:19;;;;;;;27.45;17.75;;;-0.70;99.90;;;;;;4892264;29;20128;-69
2023/12/02 09:51:52;;;;;;;25.98;14.05;;;-0.70;99.90;;;;;;4884066;29;20135;-69
2023/12/02 09:54:34;;;;;;;27.63;15.88;;;-0.80;99.90;;;;;;4888494;29;20478;-69
2023/12/02 09:57:12;;;;;;;33.38;16.63;;;-0.70;99.90;;;;;;4887365;29;20072;-69
2023/12/02 09:59:42;;;;;;;;;;;-0.70;99.90;;;;;;4890100;29;20037;-69
2023/12/02 10:02:27;;;;;;;26.90;15.02;;;-0.70;99.90;;;;;;4887961;29;19958;-69
2023/12/02 10:05:09;;;;;;;27.23;15.00;;;-0.70;99.90;;;;;;4889243;29;20112;-69
2023/12/02 10:08:23;;;;;;;24.20;15.00;;;-0.60;99.90;;;;;;4890179;29;20051;-69
2023/12/02 10:11:07;;;;;;;36.17;18.88;;;-0.60;99.90;;;;;;4900969;29;20074;-69
2023/12/02 10:13:49;;;;;;;30.15;15.88;;;-0.60;99.90;;;;;;4889515;29;20437;-69
2023/12/02 10:16:27;;;;;;;19.60;10.77;;;-0.70;99.90;;;;;;4884243;29;20052;-69
2023/12/02 10:18:59;;;;;;;37.28;16.80;;;-0.80;99.90;;;;;;4889543;29;20037;-68
2023/12/02 10:21:34;;;;;;;24.17;13.07;;;-0.80;99.90;;;;;;4884636;29;20053;-69
2023/12/02 10:24:11;;;;;;;21.45;13.75;;;-0.90;99.90;;;;;;4886112;29;20056;-69
2023/12/02 10:27:05;;;;;;;21.83;12.25;;;-0.90;99.90;;;;;;4885620;29;20051;-69
2023/12/02 10:29:50;;;;;;;24.88;14.88;;;-0.90;99.90;;;;;;4892408;29;20052;-69
2023/12/02 10:32:54;;;;;;;25.40;13.40;;;-0.90;99.90;;;;;;4887994;29;20052;-69
2023/12/02 10:35:31;;;;;;;27.95;16.60;;;-0.80;99.90;;;;;;4883151;29;20067;-68
2023/12/02 10:38:35;;;;;;;34.38;20.80;;;-0.70;99.90;;;;;;4895075;29;20521;-69
2023/12/02 10:41:27;;;;;;;36.67;21.80;;;-0.60;99.90;;;;;;4884934;29;20065;-69
2023/12/02 10:44:04;;;;;;;29.55;16.55;;;-0.60;99.90;;;;;;4897436;29;20062;-69
2023/12/02 10:46:32;;;;;;;22.25;12.40;;;-0.50;99.90;;;;;;4880212;29;20047;-69
2023/12/02 10:49:05;;;;;;;26.40;15.32;;;-0.50;99.90;;;;;;4889903;29;20124;-69
2023/12/02 10:51:40;;;;;;;25.30;13.13;;;-0.40;99.90;;;;;;4887115;29;20040;-69
2023/12/02 10:54:09;;;;;;;22.15;12.18;;;-0.40;99.90;;;;;;4888634;29;20093;-69
2023/12/02 10:56:45;;;;;;;19.98;12.63;;;-0.50;99.90;;;;;;4886499;29;20068;-70
2023/12/02 10:59:19;;;;;;;22.98;13.27;;;-0.60;99.90;;;;;;4891335;29;20134;-69
2023/12/02 11:02:19;;;;;;;22.77;13.70;;;-0.60;99.90;;;;;;4887394;29;20041;-69
2023/12/02 11:05:03;;;;;;;18.92;11.20;;;-0.60;99.90;;;;;;4886953;29;20096;-69
2023/12/02 11:07:34;;;;;;;19.45;11.43;;;-0.60;99.90;;;;;;4882450;29;20105;-69
2023/12/02 11:10:09;;;;;;;19.95;11.98;;;-0.60;99.90;;;;;;4870183;29;20064;-69
2023/12/02 11:12:50;;;;;;;20.30;12.18;;;-0.40;99.90;;;;;;4881345;29;20056;-69
2023/12/02 11:15:23;;;;;;;25.65;16.25;;;-0.40;99.90;;;;;;4889421;29;20056;-69
2023/12/02 11:18:03;;;;;;;21.92;12.65;;;-0.40;99.90;;;;;;4887492;29;20432;-69
2023/12/02 11:20:53;;;;;;;28.38;16.25;;;-0.40;99.90;;;;;;4888403;29;20478;-69
2023/12/02 11:23:52;;;;;;;25.27;14.23;;;-0.40;99.90;;;;;;4888893;29;20040;-69
2023/12/02 11:26:40;;;;;;;25.50;14.75;;;-0.30;99.90;;;;;;4888936;29;20131;-69
2023/12/02 11:29:46;;;;;;;24.15;15.00;;;-0.30;99.90;;;;;;4884794;29;20036;-69
2023/12/02 11:32:39;;;;;;;21.50;11.80;;;-0.30;99.90;;;;;;4888857;29;20131;-69
2023/12/02 11:35:16;;;;;;;20.02;11.30;;;-0.40;99.90;;;;;;4887714;29;20100;-69
2023/12/02 11:38:00;;;;;;;19.85;10.90;;;-0.50;99.90;;;;;;4896349;29;20041;-68
2023/12/02 11:40:50;;;;;;;16.02;10.38;;;-0.60;99.90;;;;;;4889830;29;20155;-69
2023/12/02 11:43:29;;;;;;;19.13;11.13;;;-0.60;99.90;;;;;;4910107;23;20054;-66
2023/12/02 11:46:12;;;;;;;19.63;11.02;;;-0.60;99.90;;;;;;4910448;29;20052;-66
2023/12/02 11:49:00;;;;;;;17.58;10.23;;;-0.50;99.90;;;;;;4922409;29;20048;-67
2023/12/02 11:52:10;;;;;;;22.75;11.95;;;-0.50;99.90;;;;;;4908668;29;20048;-67
2023/12/02 11:55:11;;;;;;;19.17;10.95;;;-0.60;99.90;;;;;;4909130;29;20546;-67
2023/12/02 11:58:11;;;;;;;20.05;11.20;;;-0.60;99.90;;;;;;4917578;29;20047;-68
2023/12/02 12:00:59;;;;;;;18.48;10.70;;;-0.70;99.90;;;;;;4912555;29;20091;-69
2023/12/02 12:03:53;;;;;;;18.95;10.95;;;-0.70;99.90;;;;;;4914464;29;20056;-70
2023/12/02 12:06:32;;;;;;;19.85;11.55;;;-0.70;99.90;;;;;;4919672;29;20043;-70
2023/12/02 12:09:33;;;;;;;21.38;12.32;;;-0.80;99.90;;;;;;4910856;29;20043;-67
2023/12/02 12:12:10;;;;;;;20.67;11.50;;;-0.70;99.90;;;;;;4930301;29;20059;-67
2023/12/02 12:14:43;;;;;;;22.70;12.25;;;-0.80;99.90;;;;;;4915187;29;20474;-67
2023/12/02 12:17:15;;;;;;;15.48;8.63;;;-0.80;99.90;;;;;;4923193;29;20044;-67
2023/12/02 12:19:49;;;;;;;20.80;12.30;;;-0.80;99.90;;;;;;4927034;29;20042;-67
2023/12/02 12:22:22;;;;;;;18.83;11.45;;;-0.90;99.90;;;;;;4894257;29;20045;-67
2023/12/02 12:24:54;;;;;;;19.83;10.80;;;-0.90;99.90;;;;;;4914965;29;20129;-68
2023/12/02 12:27:27;;;;;;;17.05;10.25;;;-0.90;99.90;;;;;;4910710;29;20397;-66
2023/12/02 12:29:59;;;;;;;21.42;11.40;;;-0.90;99.90;;;;;;4914702;29;20047;-65
2023/12/02 12:32:31;;;;;;;22.88;12.82;;;-1.00;99.90;;;;;;4927272;29;20051;-66
2023/12/02 12:35:16;;;;;;;21.70;12.70;;;-1.00;99.90;;;;;;4910160;29;20086;-66
2023/12/02 12:37:48;;;;;;;21.73;12.15;;;-0.90;99.90;;;;;;4913486;29;20052;-66
2023/12/02 12:40:15;;;;;;;23.65;14.02;;;-1.00;99.90;;;;;;4918773;29;20142;-66
2023/12/02 12:42:48;;;;;;;21.80;12.30;;;-1.00;99.90;;;;;;4913082;29;20504;-66
2023/12/02 12:45:21;;;;;;;24.00;14.45;;;-1.00;99.90;;;;;;4912005;29;20039;-66
2023/12/02 12:47:50;;;;;;;24.98;14.57;;;-1.00;99.90;;;;;;4914210;29;20050;-67
2023/12/02 12:50:18;;;;;;;22.45;12.77;;;-1.00;99.90;;;;;;4915602;29;20043;-66
2023/12/02 12:52:51;;;;;;;23.60;13.63;;;-1.00;99.90;;;;;;4914486;29;20035;-66
2023/12/02 12:55:26;;;;;;;21.58;13.20;;;-1.00;99.90;;;;;;4913216;29;20058;-66
2023/12/02 12:58:04;;;;;;;21.17;13.30;;;-1.00;99.90;;;;;;4912529;29;20040;-66
2023/12/02 13:00:35;;;;;;;25.42;14.27;;;-1.00;99.90;;;;;;4911022;29;20127;-66
2023/12/02 13:03:36;;;;;;;25.48;14.98;;;-1.10;99.90;;;;;;4916606;29;20528;-66
2023/12/02 13:06:08;;;;;;;20.92;11.38;;;-1.00;99.90;;;;;;4900198;29;20063;-66